createdAt,value
2023-03-08T00:00:57.929Z,16.93
2023-03-08T00:03:29.377Z,19.50
2023-03-08T00:06:00.715Z,20.13
2023-03-08T00:08:32.055Z,22.77
2023-03-08T00:11:04.786Z,25.67
2023-03-08T00:13:36.449Z,19.87
2023-03-08T00:16:10.388Z,18.73
2023-03-08T00:18:42.273Z,20.03
2023-03-08T00:21:15.187Z,17.00
2023-03-08T00:23:46.665Z,17.57
2023-03-08T00:26:18.292Z,17.20
2023-03-08T00:28:49.606Z,16.77
2023-03-08T00:31:21.093Z,16.57
2023-03-08T00:33:55.105Z,16.70
2023-03-08T00:36:26.815Z,16.63
2023-03-08T00:38:59.255Z,15.73
2023-03-08T00:41:30.735Z,14.37
2023-03-08T00:44:01.893Z,13.57
2023-03-08T00:46:33.259Z,18.60
2023-03-08T00:49:05.216Z,17.50
2023-03-08T00:51:36.519Z,15.63
2023-03-08T00:54:08.471Z,14.20
2023-03-08T00:56:40.052Z,19.43
2023-03-08T00:59:11.290Z,15.40
2023-03-08T01:01:42.937Z,14.90
2023-03-08T01:04:14.164Z,15.63
2023-03-08T01:06:46.579Z,14.97
2023-03-08T01:09:18.022Z,15.53
2023-03-08T01:11:49.183Z,14.10
2023-03-08T01:14:20.388Z,15.20
2023-03-08T01:16:51.791Z,15.90
2023-03-08T01:19:23.085Z,17.07
2023-03-08T01:21:54.558Z,16.53
2023-03-08T01:24:25.933Z,15.10
2023-03-08T01:26:59.079Z,16.43
2023-03-08T01:29:30.547Z,16.53
2023-03-08T01:32:01.896Z,15.03
2023-03-08T01:34:33.167Z,17.67
2023-03-08T01:37:05.525Z,16.53
2023-03-08T01:39:36.736Z,15.70
2023-03-08T01:42:08.752Z,14.17
2023-03-08T01:44:57.142Z,15.20
2023-03-08T01:47:30.484Z,14.80
2023-03-08T01:50:04.489Z,15.80
2023-03-08T01:52:38.509Z,16.50
2023-03-08T01:55:13.723Z,15.27
2023-03-08T01:57:47.180Z,14.93
2023-03-08T02:00:23.067Z,16.13
2023-03-08T02:02:56.930Z,15.33
2023-03-08T02:05:29.325Z,15.23
2023-03-08T02:08:00.569Z,15.93
2023-03-08T02:10:32.481Z,19.95
2023-03-08T02:13:04.355Z,18.47
2023-03-08T02:15:35.908Z,15.60
2023-03-08T02:18:07.160Z,16.47
2023-03-08T02:20:40.712Z,21.40
2023-03-08T02:23:14.166Z,16.50
2023-03-08T02:25:47.113Z,19.03
2023-03-08T02:28:18.480Z,20.67
2023-03-08T02:30:50.565Z,21.73
2023-03-08T02:33:21.877Z,21.37
2023-03-08T02:35:53.085Z,17.83
2023-03-08T02:38:24.795Z,17.33
2023-03-08T02:40:56.448Z,16.83
2023-03-08T02:43:27.959Z,15.63
2023-03-08T02:45:59.344Z,15.73
2023-03-08T02:48:30.655Z,17.47
2023-03-08T02:51:01.999Z,15.70
2023-03-08T02:53:33.662Z,17.43
2023-03-08T02:56:05.052Z,17.47
2023-03-08T02:58:36.144Z,17.93
2023-03-08T03:01:09.073Z,16.90
2023-03-08T03:03:40.420Z,18.37
2023-03-08T03:06:17.337Z,16.37
2023-03-08T03:08:49.908Z,14.43
2023-03-08T03:11:23.181Z,16.37
2023-03-08T03:13:59.233Z,16.80
2023-03-08T03:16:30.954Z,16.50
2023-03-08T03:19:02.299Z,15.90
2023-03-08T03:21:33.984Z,16.57
2023-03-08T03:24:05.379Z,17.37
2023-03-08T03:26:36.768Z,17.57
2023-03-08T03:29:07.892Z,17.17
2023-03-08T03:31:39.146Z,16.33
2023-03-08T03:34:10.457Z,15.87
2023-03-08T03:36:41.677Z,18.63
2023-03-08T03:39:12.998Z,17.30
2023-03-08T03:41:44.120Z,17.60
2023-03-08T03:44:15.671Z,18.03
2023-03-08T03:46:46.898Z,18.90
2023-03-08T03:49:18.009Z,18.17
2023-03-08T03:51:49.207Z,17.70
2023-03-08T03:54:20.708Z,17.90
2023-03-08T03:56:52.116Z,18.57
2023-03-08T03:59:25.667Z,16.67
2023-03-08T04:01:56.137Z,19.53
2023-03-08T04:04:27.354Z,19.77
2023-03-08T04:06:58.671Z,19.90
2023-03-08T04:09:29.928Z,19.13
2023-03-08T04:12:02.999Z,19.30
2023-03-08T04:14:34.478Z,16.70
2023-03-08T04:17:06.315Z,17.80
2023-03-08T04:19:37.839Z,16.67
2023-03-08T04:22:09.160Z,16.83
2023-03-08T04:24:40.421Z,17.60
2023-03-08T04:27:12.743Z,17.10
2023-03-08T04:29:44.036Z,17.83
2023-03-08T04:32:15.472Z,17.53
2023-03-08T04:34:46.646Z,18.17
2023-03-08T04:37:18.145Z,17.37
2023-03-08T04:39:51.015Z,17.50
2023-03-08T04:42:22.244Z,18.37
2023-03-08T04:44:53.457Z,17.63
2023-03-08T04:47:24.719Z,17.63
2023-03-08T04:49:55.947Z,17.17
2023-03-08T04:52:27.499Z,17.77
2023-03-08T04:54:59.257Z,17.47
2023-03-08T04:57:30.460Z,17.63
2023-03-08T05:00:01.798Z,21.10
2023-03-08T05:02:33.625Z,18.00
2023-03-08T05:05:05.297Z,17.60
2023-03-08T05:07:36.574Z,16.07
2023-03-08T05:10:09.280Z,17.10
2023-03-08T05:12:40.638Z,17.80
2023-03-08T05:15:13.570Z,17.47
2023-03-08T05:17:44.983Z,17.47
2023-03-08T05:20:16.975Z,16.73
2023-03-08T05:22:57.939Z,17.27
2023-03-08T05:25:21.271Z,16.67
2023-03-08T05:27:52.720Z,17.90
2023-03-08T05:30:24.500Z,18.83
2023-03-08T05:32:55.862Z,20.90
2023-03-08T05:35:26.989Z,20.07
2023-03-08T05:37:58.335Z,20.40
2023-03-08T05:40:30.084Z,19.87
2023-03-08T05:43:01.326Z,19.40
2023-03-08T05:45:32.878Z,19.37
2023-03-08T05:48:04.229Z,19.07
2023-03-08T05:50:35.724Z,20.10
2023-03-08T05:53:06.994Z,19.47
2023-03-08T05:55:38.750Z,19.47
2023-03-08T05:58:09.880Z,17.43
2023-03-08T06:00:40.985Z,21.23
2023-03-08T06:05:50.266Z,16.90
2023-03-08T06:08:23.558Z,19.83
2023-03-08T06:10:55.017Z,25.63
2023-03-08T06:13:26.234Z,28.87
2023-03-08T06:15:59.556Z,18.50
2023-03-08T06:18:31.111Z,21.90
2023-03-08T06:21:03.813Z,18.17
2023-03-08T06:23:36.268Z,18.63
2023-03-08T06:26:09.851Z,17.80
2023-03-08T06:28:41.626Z,18.87
2023-03-08T06:31:14.707Z,18.47
2023-03-08T06:36:24.886Z,19.80
2023-03-08T06:38:56.012Z,17.80
2023-03-08T06:41:27.308Z,19.83
2023-03-08T06:43:58.426Z,19.37
2023-03-08T06:46:30.225Z,18.93
2023-03-08T06:49:03.537Z,19.23
2023-03-08T06:51:35.030Z,19.97
2023-03-08T06:54:06.436Z,20.03
2023-03-08T06:56:37.816Z,20.70
2023-03-08T06:59:09.154Z,18.90
2023-03-08T07:01:40.705Z,20.80
2023-03-08T07:04:11.968Z,19.03
2023-03-08T07:06:43.190Z,19.73
2023-03-08T07:09:14.725Z,19.70
2023-03-08T07:11:45.950Z,19.23
2023-03-08T07:14:17.578Z,18.73
2023-03-08T07:16:48.840Z,19.30
2023-03-08T07:19:20.130Z,23.17
2023-03-08T07:21:51.502Z,21.67
2023-03-08T07:24:23.036Z,19.77
2023-03-08T07:26:54.225Z,20.57
2023-03-08T07:29:25.745Z,30.87
2023-03-08T07:31:57.014Z,21.63
2023-03-08T07:34:28.620Z,22.83
2023-03-08T07:39:40.203Z,21.17
2023-03-08T07:42:12.844Z,19.57
2023-03-08T07:44:43.984Z,17.83
2023-03-08T07:47:15.193Z,18.87
2023-03-08T07:49:46.383Z,17.80
2023-03-08T07:52:17.924Z,18.50
2023-03-08T07:54:49.072Z,17.90
2023-03-08T07:57:20.533Z,17.87
2023-03-08T07:59:54.413Z,16.10
2023-03-08T08:02:25.377Z,16.67
2023-03-08T08:04:56.387Z,15.87
2023-03-08T08:07:28.374Z,16.00
2023-03-08T08:09:59.376Z,16.57
2023-03-08T08:12:30.780Z,16.07
2023-03-08T08:15:01.864Z,15.20
2023-03-08T08:17:32.835Z,15.53
2023-03-08T08:20:06.078Z,13.83
2023-03-08T08:22:39.339Z,12.77
2023-03-08T08:25:12.830Z,13.27
2023-03-08T08:27:44.245Z,14.90
2023-03-08T08:30:17.778Z,15.47
2023-03-08T08:32:48.960Z,15.27
2023-03-08T08:35:20.788Z,14.70
2023-03-08T08:37:51.797Z,14.17
2023-03-08T08:40:22.970Z,14.87
2023-03-08T08:42:53.857Z,13.67
2023-03-08T08:45:24.857Z,15.03
2023-03-08T08:47:55.743Z,14.63
2023-03-08T08:50:26.546Z,13.70
2023-03-08T08:52:59.111Z,14.23
2023-03-08T08:55:29.999Z,15.07
2023-03-08T08:58:01.184Z,15.03
2023-03-08T09:00:32.598Z,16.20
2023-03-08T09:03:04.479Z,12.93
2023-03-08T09:05:38.792Z,11.93
2023-03-08T09:08:10.373Z,12.13
2023-03-08T09:10:42.248Z,12.97
2023-03-08T09:13:14.283Z,12.00
2023-03-08T09:15:45.647Z,11.70
2023-03-08T09:18:17.119Z,11.47
2023-03-08T09:20:48.380Z,10.63
2023-03-08T09:23:19.477Z,12.70
2023-03-08T09:26:00.344Z,13.10
2023-03-08T09:28:31.538Z,12.57
2023-03-08T09:31:04.355Z,15.43
2023-03-08T09:33:35.670Z,12.50
2023-03-08T09:36:08.196Z,13.77
2023-03-08T09:38:39.891Z,13.37
2023-03-08T09:41:26.637Z,13.40
2023-03-08T09:44:06.498Z,11.90
2023-03-08T09:46:41.203Z,12.30
2023-03-08T09:49:16.424Z,11.77
2023-03-08T09:51:50.741Z,12.40
2023-03-08T09:54:25.461Z,12.93
2023-03-08T09:56:57.405Z,12.60
2023-03-08T09:59:32.923Z,11.20
2023-03-08T10:04:59.604Z,9.27
2023-03-08T10:10:19.309Z,8.33
2023-03-08T10:12:59.554Z,8.00
2023-03-08T10:15:33.227Z,8.60
2023-03-08T10:18:07.630Z,8.07
2023-03-08T10:20:39.706Z,7.63
2023-03-08T10:23:16.253Z,7.93
2023-03-08T10:25:48.892Z,8.35
2023-03-08T10:28:21.976Z,7.63
2023-03-08T10:30:55.655Z,7.40
2023-03-08T10:33:29.619Z,7.37
2023-03-08T10:36:03.162Z,7.37
2023-03-08T10:38:37.504Z,7.73
2023-03-08T10:41:14.633Z,6.87
2023-03-08T10:44:04.414Z,7.17
2023-03-08T10:46:35.599Z,7.33
2023-03-08T10:49:17.612Z,6.23
2023-03-08T10:51:59.967Z,6.77
2023-03-08T10:54:32.064Z,6.93
2023-03-08T10:57:04.520Z,6.53
2023-03-08T10:59:38.094Z,6.73
2023-03-08T11:02:21.640Z,7.40
2023-03-08T11:04:57.698Z,6.10
2023-03-08T11:07:31.624Z,6.90
2023-03-08T11:10:21.541Z,6.63
2023-03-08T11:12:54.303Z,6.43
2023-03-08T11:15:25.797Z,6.13
2023-03-08T11:17:59.979Z,6.60
2023-03-08T11:20:34.189Z,6.30
2023-03-08T11:23:14.053Z,6.00
2023-03-08T11:25:48.113Z,6.30
2023-03-08T11:28:34.684Z,6.23
2023-03-08T11:31:23.055Z,7.07
2023-03-08T11:34:29.148Z,7.30
2023-03-08T11:39:44.420Z,6.50
2023-03-08T11:42:21.729Z,6.87
2023-03-08T11:45:12.848Z,6.50
2023-03-08T11:48:03.193Z,7.33
2023-03-08T11:50:38.305Z,7.83
2023-03-08T11:53:18.967Z,7.43
2023-03-08T11:56:28.008Z,8.00
2023-03-08T11:59:03.007Z,8.13
2023-03-08T12:01:36.870Z,7.27
2023-03-08T12:04:11.351Z,7.70
2023-03-08T12:06:44.128Z,7.60
2023-03-08T12:09:20.986Z,6.80
2023-03-08T12:11:55.573Z,6.97
2023-03-08T12:14:30.686Z,7.00
2023-03-08T12:17:08.362Z,6.70
2023-03-08T12:19:44.420Z,7.80
2023-03-08T12:22:27.527Z,7.90
2023-03-08T12:25:02.537Z,8.83
2023-03-08T12:27:36.485Z,8.30
2023-03-08T12:30:15.674Z,8.70
2023-03-08T12:32:48.356Z,7.70
2023-03-08T12:35:31.519Z,7.87
2023-03-08T12:38:05.364Z,8.37
2023-03-08T12:40:44.635Z,7.97
2023-03-08T12:46:06.792Z,8.57
2023-03-08T12:48:41.417Z,7.47
2023-03-08T12:51:22.149Z,8.17
2023-03-08T12:54:01.956Z,7.60
2023-03-08T12:56:35.788Z,8.07
2023-03-08T12:59:26.581Z,8.90
2023-03-08T13:02:06.047Z,9.07
2023-03-08T13:04:41.928Z,9.50
2023-03-08T13:07:22.597Z,8.97
2023-03-08T13:10:02.877Z,9.00
2023-03-08T13:12:42.797Z,8.90
2023-03-08T13:15:27.295Z,8.60
2023-03-08T13:18:06.435Z,9.27
2023-03-08T13:20:54.222Z,9.50
2023-03-08T13:23:30.988Z,8.77
2023-03-08T13:26:10.692Z,8.40
2023-03-08T13:28:47.682Z,9.73
2023-03-08T13:31:19.157Z,9.50
2023-03-08T13:33:52.537Z,9.37
2023-03-08T13:36:25.493Z,9.00
2023-03-08T13:39:05.691Z,8.50
2023-03-08T13:41:39.969Z,9.20
2023-03-08T13:44:17.335Z,8.80
2023-03-08T13:46:50.553Z,9.10
2023-03-08T13:49:25.666Z,8.40
2023-03-08T13:51:59.002Z,7.97
2023-03-08T13:54:32.837Z,8.67
2023-03-08T13:57:05.704Z,7.90
2023-03-08T13:59:38.231Z,8.23
2023-03-08T14:02:21.691Z,8.10
2023-03-08T14:04:53.048Z,9.30
2023-03-08T14:07:26.598Z,10.00
2023-03-08T14:09:58.141Z,9.60
2023-03-08T14:12:31.703Z,10.27
2023-03-08T14:15:05.357Z,8.67
2023-03-08T14:17:37.811Z,8.67
2023-03-08T14:20:19.000Z,8.37
2023-03-08T14:22:52.017Z,8.63
2023-03-08T14:25:29.508Z,8.33
2023-03-08T14:28:00.845Z,8.57
2023-03-08T14:30:32.637Z,8.70
2023-03-08T14:33:09.386Z,8.87
2023-03-08T14:35:43.018Z,8.50
2023-03-08T14:38:20.714Z,9.17
2023-03-08T14:40:52.727Z,11.07
2023-03-08T14:43:25.894Z,9.73
2023-03-08T14:45:59.016Z,9.27
2023-03-08T14:48:32.925Z,8.57
2023-03-08T14:51:05.698Z,8.27
2023-03-08T14:53:38.895Z,10.25
2023-03-08T14:56:14.106Z,9.90
2023-03-08T14:58:48.886Z,8.53
2023-03-08T15:01:28.236Z,8.27
2023-03-08T15:04:00.128Z,8.43
2023-03-08T15:06:33.252Z,10.10
2023-03-08T15:09:06.067Z,10.13
2023-03-08T15:11:37.774Z,9.37
2023-03-08T15:14:10.099Z,11.20
2023-03-08T15:16:40.996Z,9.53
2023-03-08T15:19:13.576Z,8.80
2023-03-08T15:21:44.905Z,9.77
2023-03-08T15:24:19.017Z,9.70
2023-03-08T15:26:50.104Z,8.50
2023-03-08T15:29:29.837Z,7.97
2023-03-08T15:32:01.748Z,8.47
2023-03-08T15:34:32.911Z,9.03
2023-03-08T15:37:05.391Z,8.43
2023-03-08T15:39:36.558Z,8.23
2023-03-08T15:42:07.978Z,9.00
2023-03-08T15:44:38.870Z,8.10
2023-03-08T15:47:11.837Z,8.57
2023-03-08T15:49:43.282Z,8.60
2023-03-08T15:52:14.488Z,9.03
2023-03-08T15:54:47.105Z,8.27
2023-03-08T15:57:17.941Z,8.83
2023-03-08T15:59:49.438Z,19.67
2023-03-08T16:02:21.815Z,10.23
2023-03-08T16:04:54.181Z,8.70
2023-03-08T16:07:25.708Z,8.00
2023-03-08T16:09:56.616Z,8.43
2023-03-08T16:12:27.631Z,10.17
2023-03-08T16:14:58.804Z,8.47
2023-03-08T16:17:31.255Z,7.77
2023-03-08T16:20:02.115Z,7.90
2023-03-08T16:22:32.995Z,8.23
2023-03-08T16:25:04.108Z,8.23
2023-03-08T16:27:38.111Z,8.33
2023-03-08T16:30:13.262Z,8.23
2023-03-08T16:32:44.164Z,8.03
2023-03-08T16:35:15.044Z,8.77
2023-03-08T16:37:45.989Z,7.87
2023-03-08T16:40:17.222Z,7.77
2023-03-08T16:42:48.460Z,7.83
2023-03-08T16:45:19.354Z,8.40
2023-03-08T16:47:50.338Z,8.40
2023-03-08T16:50:21.483Z,7.90
2023-03-08T16:52:55.756Z,8.97
2023-03-08T16:55:27.040Z,7.57
2023-03-08T16:57:57.898Z,9.77
2023-03-08T17:00:29.312Z,9.37
2023-03-08T17:03:00.718Z,9.83
2023-03-08T17:05:32.253Z,10.30
2023-03-08T17:08:03.397Z,8.77
2023-03-08T17:10:38.228Z,9.37
2023-03-08T17:13:10.356Z,10.30
2023-03-08T17:15:47.003Z,9.17
2023-03-08T17:18:17.864Z,8.73
2023-03-08T17:20:48.901Z,9.70
2023-03-08T17:23:21.026Z,10.47
2023-03-08T17:25:52.745Z,9.30
2023-03-08T17:28:23.562Z,9.43
2023-03-08T17:30:54.510Z,9.23
2023-03-08T17:33:26.502Z,8.80
2023-03-08T17:35:59.529Z,10.03
2023-03-08T17:38:30.697Z,8.77
2023-03-08T17:41:01.825Z,8.60
2023-03-08T17:43:32.742Z,8.77
2023-03-08T17:46:05.992Z,9.47
2023-03-08T17:48:38.594Z,8.73
2023-03-08T17:51:11.619Z,9.60
2023-03-08T17:53:43.492Z,9.57
2023-03-08T17:56:16.019Z,9.37
2023-03-08T17:58:47.005Z,9.50
2023-03-08T18:01:20.792Z,10.20
2023-03-08T18:03:52.342Z,10.97
2023-03-08T18:06:26.471Z,10.80
2023-03-08T18:08:57.688Z,10.57
2023-03-08T18:11:29.386Z,11.07
2023-03-08T18:14:00.212Z,9.57
2023-03-08T18:16:32.900Z,10.17
2023-03-08T18:19:04.134Z,10.53
2023-03-08T18:21:36.976Z,10.27
2023-03-08T18:24:10.891Z,12.33
2023-03-08T18:26:42.006Z,10.63
2023-03-08T18:29:13.476Z,10.33
2023-03-08T18:31:44.355Z,12.30
2023-03-08T18:34:15.243Z,12.13
2023-03-08T18:36:46.095Z,11.23
2023-03-08T18:39:16.881Z,12.17
2023-03-08T18:41:47.615Z,11.93
2023-03-08T18:44:18.498Z,10.90
2023-03-08T18:46:49.409Z,11.77
2023-03-08T18:49:20.173Z,10.80
2023-03-08T18:51:51.119Z,10.67
2023-03-08T18:54:22.529Z,12.33
2023-03-08T18:56:53.935Z,11.33
2023-03-08T18:59:25.214Z,12.27
2023-03-08T19:01:56.088Z,11.43
2023-03-08T19:04:27.676Z,11.83
2023-03-08T19:06:58.456Z,11.37
2023-03-08T19:09:29.178Z,10.73
2023-03-08T19:12:00.408Z,10.20
2023-03-08T19:14:31.538Z,12.83
2023-03-08T19:17:02.355Z,12.23
2023-03-08T19:19:34.105Z,10.47
2023-03-08T19:22:06.567Z,11.63
2023-03-08T19:24:37.439Z,12.47
2023-03-08T19:27:08.354Z,11.97
2023-03-08T19:29:39.566Z,11.43
2023-03-08T19:32:13.954Z,12.60
2023-03-08T19:34:45.732Z,10.87
2023-03-08T19:37:17.049Z,11.27
2023-03-08T19:39:48.018Z,11.13
2023-03-08T19:42:19.304Z,11.47
2023-03-08T19:44:51.057Z,11.67
2023-03-08T19:47:22.238Z,10.67
2023-03-08T19:49:54.367Z,11.40
2023-03-08T19:52:25.476Z,11.50
2023-03-08T19:54:56.682Z,12.13
2023-03-08T19:57:27.718Z,12.57
2023-03-08T19:59:59.535Z,13.43
2023-03-08T20:02:30.874Z,13.73
2023-03-08T20:05:02.764Z,12.00
2023-03-08T20:07:34.818Z,13.00
2023-03-08T20:10:15.720Z,12.70
2023-03-08T20:12:39.500Z,12.83
2023-03-08T20:15:12.681Z,12.27
2023-03-08T20:17:43.588Z,12.67
2023-03-08T20:20:15.480Z,12.97
2023-03-08T20:22:46.566Z,12.50
2023-03-08T20:25:18.070Z,12.17
2023-03-08T20:27:49.182Z,12.93
2023-03-08T20:30:21.752Z,12.50
2023-03-08T20:32:53.456Z,12.23
2023-03-08T20:35:24.564Z,12.77
2023-03-08T20:37:55.540Z,13.03
2023-03-08T20:40:26.387Z,14.97
2023-03-08T20:42:58.137Z,14.10
2023-03-08T20:45:29.984Z,13.70
2023-03-08T20:48:00.883Z,12.73
2023-03-08T20:50:32.186Z,12.43
2023-03-08T20:55:42.145Z,11.33
2023-03-08T20:58:12.881Z,11.73
2023-03-08T21:00:43.671Z,12.13
2023-03-08T21:03:14.757Z,11.93
2023-03-08T21:05:46.159Z,12.33
2023-03-08T21:08:17.295Z,11.50
2023-03-08T21:10:48.139Z,12.10
2023-03-08T21:13:18.848Z,11.20
2023-03-08T21:15:49.732Z,10.87
2023-03-08T21:18:20.634Z,11.53
2023-03-08T21:20:53.866Z,11.10
2023-03-08T21:23:24.693Z,11.37
2023-03-08T21:25:57.602Z,10.97
2023-03-08T21:28:28.585Z,12.35
2023-03-08T21:30:59.371Z,12.10
2023-03-08T21:33:30.176Z,10.77
2023-03-08T21:36:01.684Z,10.27
2023-03-08T21:38:32.533Z,11.00
2023-03-08T21:41:03.452Z,10.70
2023-03-08T21:43:34.377Z,10.97
2023-03-08T21:46:07.932Z,11.73
2023-03-08T21:48:38.665Z,11.37
2023-03-08T21:51:10.946Z,10.37
2023-03-08T21:53:42.265Z,10.97
2023-03-08T21:56:16.084Z,11.30
2023-03-08T21:58:47.371Z,10.60
2023-03-08T22:01:23.415Z,10.77
2023-03-08T22:03:55.225Z,10.77
2023-03-08T22:06:27.004Z,10.20
2023-03-08T22:09:16.531Z,9.97
2023-03-08T22:11:47.451Z,10.63
2023-03-08T22:14:18.210Z,10.57
2023-03-08T22:16:49.073Z,10.17
2023-03-08T22:19:19.876Z,10.70
2023-03-08T22:21:50.768Z,10.47
2023-03-08T22:24:21.573Z,9.30
2023-03-08T22:26:52.533Z,9.13
2023-03-08T22:29:23.350Z,8.53
2023-03-08T22:31:54.208Z,8.47
2023-03-08T22:34:25.243Z,9.10
2023-03-08T22:36:55.990Z,9.70
2023-03-08T22:39:28.088Z,9.57
2023-03-08T22:41:59.001Z,12.00
2023-03-08T22:44:29.987Z,11.37
2023-03-08T22:47:00.971Z,11.30
2023-03-08T22:49:31.716Z,11.37
2023-03-08T22:52:02.597Z,10.73
2023-03-08T22:54:33.547Z,12.23
2023-03-08T22:57:04.775Z,8.93
2023-03-08T22:59:35.585Z,12.17
2023-03-08T23:02:06.796Z,11.47
2023-03-08T23:04:37.726Z,11.97
2023-03-08T23:07:08.930Z,12.07
2023-03-08T23:09:39.955Z,12.53
2023-03-08T23:12:12.019Z,12.33
2023-03-08T23:14:44.993Z,12.03
2023-03-08T23:17:15.476Z,12.70
2023-03-08T23:19:46.252Z,12.33
2023-03-08T23:22:17.186Z,12.77
2023-03-08T23:24:48.824Z,12.77
2023-03-08T23:27:19.782Z,12.40
2023-03-08T23:29:52.079Z,13.43
2023-03-08T23:32:23.106Z,12.80
2023-03-08T23:34:53.887Z,13.27
2023-03-08T23:37:24.756Z,12.97
2023-03-08T23:39:55.625Z,13.10
2023-03-08T23:42:26.519Z,15.05
2023-03-08T23:44:57.273Z,13.90
2023-03-08T23:47:28.208Z,13.80
2023-03-08T23:49:59.255Z,14.20
2023-03-08T23:52:30.185Z,13.60
2023-03-08T23:55:00.982Z,13.77
2023-03-08T23:57:31.994Z,13.33
